sensor_id;sensor_type;location;lat;lon;timestamp;P1;durP1;ratioP1;P2;durP2;ratioP2
41927;SDS011;27616;51.420;6.788;2022-12-20T00:02:11;4.90;;;2.07;;
41927;SDS011;27616;51.420;6.788;2022-12-20T00:04:36;4.13;;;2.10;;
41927;SDS011;27616;51.420;6.788;2022-12-20T00:07:02;4.70;;;1.90;;
41927;SDS011;27616;51.420;6.788;2022-12-20T00:09:27;3.47;;;1.80;;
41927;SDS011;27616;51.420;6.788;2022-12-20T00:11:53;5.00;;;2.10;;
41927;SDS011;27616;51.420;6.788;2022-12-20T00:14:19;4.07;;;1.97;;
41927;SDS011;27616;51.420;6.788;2022-12-20T00:16:44;4.93;;;1.83;;
41927;SDS011;27616;51.420;6.788;2022-12-20T00:19:10;4.83;;;1.87;;
41927;SDS011;27616;51.420;6.788;2022-12-20T00:21:36;4.60;;;2.00;;
41927;SDS011;27616;51.420;6.788;2022-12-20T00:24:03;5.07;;;2.03;;
41927;SDS011;27616;51.420;6.788;2022-12-20T00:26:30;4.47;;;1.90;;
41927;SDS011;27616;51.420;6.788;2022-12-20T00:28:58;4.53;;;1.90;;
41927;SDS011;27616;51.420;6.788;2022-12-20T00:31:25;3.90;;;1.67;;
41927;SDS011;27616;51.420;6.788;2022-12-20T00:33:52;3.57;;;1.80;;
41927;SDS011;27616;51.420;6.788;2022-12-20T00:36:20;4.30;;;1.73;;
41927;SDS011;27616;51.420;6.788;2022-12-20T00:38:48;4.10;;;1.83;;
41927;SDS011;27616;51.420;6.788;2022-12-20T00:41:16;4.53;;;1.37;;
41927;SDS011;27616;51.420;6.788;2022-12-20T00:43:44;4.30;;;1.77;;
41927;SDS011;27616;51.420;6.788;2022-12-20T00:46:11;4.30;;;1.70;;
41927;SDS011;27616;51.420;6.788;2022-12-20T00:48:37;3.33;;;1.53;;
41927;SDS011;27616;51.420;6.788;2022-12-20T00:51:06;3.30;;;1.50;;
41927;SDS011;27616;51.420;6.788;2022-12-20T00:53:34;4.07;;;1.40;;
41927;SDS011;27616;51.420;6.788;2022-12-20T00:56:00;2.83;;;1.43;;
41927;SDS011;27616;51.420;6.788;2022-12-20T00:58:27;3.90;;;1.73;;
41927;SDS011;27616;51.420;6.788;2022-12-20T01:00:53;3.30;;;1.40;;
41927;SDS011;27616;51.420;6.788;2022-12-20T01:03:19;3.60;;;1.50;;
41927;SDS011;27616;51.420;6.788;2022-12-20T01:05:54;4.60;;;1.60;;
41927;SDS011;27616;51.420;6.788;2022-12-20T01:08:25;3.13;;;1.43;;
41927;SDS011;27616;51.420;6.788;2022-12-20T01:11:00;3.30;;;1.45;;
41927;SDS011;27616;51.420;6.788;2022-12-20T01:13:27;3.47;;;1.80;;
41927;SDS011;27616;51.420;6.788;2022-12-20T01:15:53;4.33;;;1.60;;
41927;SDS011;27616;51.420;6.788;2022-12-20T01:18:19;5.17;;;1.67;;
41927;SDS011;27616;51.420;6.788;2022-12-20T01:20:45;2.17;;;1.40;;
41927;SDS011;27616;51.420;6.788;2022-12-20T01:23:11;2.57;;;1.27;;
41927;SDS011;27616;51.420;6.788;2022-12-20T01:25:36;2.63;;;1.70;;
41927;SDS011;27616;51.420;6.788;2022-12-20T01:28:02;3.07;;;1.70;;
41927;SDS011;27616;51.420;6.788;2022-12-20T01:30:28;5.30;;;1.50;;
41927;SDS011;27616;51.420;6.788;2022-12-20T01:32:54;3.33;;;1.80;;
41927;SDS011;27616;51.420;6.788;2022-12-20T01:35:19;3.50;;;1.40;;
41927;SDS011;27616;51.420;6.788;2022-12-20T01:37:45;2.93;;;1.50;;
41927;SDS011;27616;51.420;6.788;2022-12-20T01:40:11;3.23;;;1.33;;
41927;SDS011;27616;51.420;6.788;2022-12-20T01:42:37;3.00;;;1.47;;
41927;SDS011;27616;51.420;6.788;2022-12-20T01:45:02;4.77;;;1.40;;
41927;SDS011;27616;51.420;6.788;2022-12-20T01:47:37;6.27;;;2.07;;
41927;SDS011;27616;51.420;6.788;2022-12-20T01:50:04;3.70;;;1.50;;
41927;SDS011;27616;51.420;6.788;2022-12-20T01:52:33;3.23;;;1.53;;
41927;SDS011;27616;51.420;6.788;2022-12-20T01:57:36;2.67;;;1.47;;
41927;SDS011;27616;51.420;6.788;2022-12-20T02:00:09;2.83;;;1.40;;
41927;SDS011;27616;51.420;6.788;2022-12-20T02:02:41;4.07;;;1.60;;
41927;SDS011;27616;51.420;6.788;2022-12-20T02:05:09;5.90;;;2.53;;
41927;SDS011;27616;51.420;6.788;2022-12-20T02:07:35;3.40;;;1.73;;
41927;SDS011;27616;51.420;6.788;2022-12-20T02:10:03;5.27;;;1.90;;
41927;SDS011;27616;51.420;6.788;2022-12-20T02:12:39;4.37;;;1.53;;
41927;SDS011;27616;51.420;6.788;2022-12-20T02:20:44;3.83;;;1.87;;
41927;SDS011;27616;51.420;6.788;2022-12-20T02:23:52;2.90;;;1.70;;
41927;SDS011;27616;51.420;6.788;2022-12-20T02:29:24;3.77;;;1.50;;
41927;SDS011;27616;51.420;6.788;2022-12-20T02:32:04;3.63;;;1.53;;
41927;SDS011;27616;51.420;6.788;2022-12-20T02:34:33;4.97;;;1.73;;
41927;SDS011;27616;51.420;6.788;2022-12-20T02:37:00;4.20;;;1.40;;
41927;SDS011;27616;51.420;6.788;2022-12-20T02:43:14;4.43;;;1.90;;
41927;SDS011;27616;51.420;6.788;2022-12-20T02:45:58;3.70;;;1.63;;
41927;SDS011;27616;51.420;6.788;2022-12-20T02:48:26;5.70;;;2.00;;
41927;SDS011;27616;51.420;6.788;2022-12-20T02:50:56;3.07;;;1.97;;
41927;SDS011;27616;51.420;6.788;2022-12-20T02:53:24;4.27;;;1.87;;
41927;SDS011;27616;51.420;6.788;2022-12-20T02:58:41;5.40;;;2.43;;
41927;SDS011;27616;51.420;6.788;2022-12-20T03:01:13;6.03;;;2.70;;
41927;SDS011;27616;51.420;6.788;2022-12-20T03:03:46;4.73;;;2.60;;
41927;SDS011;27616;51.420;6.788;2022-12-20T03:06:12;6.00;;;2.30;;
41927;SDS011;27616;51.420;6.788;2022-12-20T03:08:38;4.83;;;2.50;;
41927;SDS011;27616;51.420;6.788;2022-12-20T03:11:04;4.97;;;2.33;;
41927;SDS011;27616;51.420;6.788;2022-12-20T03:13:31;5.07;;;2.50;;
41927;SDS011;27616;51.420;6.788;2022-12-20T03:16:04;5.77;;;3.10;;
41927;SDS011;27616;51.420;6.788;2022-12-20T03:18:31;5.13;;;2.50;;
41927;SDS011;27616;51.420;6.788;2022-12-20T03:20:56;4.63;;;3.00;;
41927;SDS011;27616;51.420;6.788;2022-12-20T03:23:22;5.67;;;3.30;;
41927;SDS011;27616;51.420;6.788;2022-12-20T03:25:48;5.80;;;3.00;;
41927;SDS011;27616;51.420;6.788;2022-12-20T03:28:23;7.10;;;3.20;;
41927;SDS011;27616;51.420;6.788;2022-12-20T03:30:49;7.57;;;3.47;;
41927;SDS011;27616;51.420;6.788;2022-12-20T03:33:15;5.60;;;2.80;;
41927;SDS011;27616;51.420;6.788;2022-12-20T03:35:41;5.63;;;3.30;;
41927;SDS011;27616;51.420;6.788;2022-12-20T03:38:08;6.10;;;3.27;;
41927;SDS011;27616;51.420;6.788;2022-12-20T03:40:34;7.23;;;4.00;;
41927;SDS011;27616;51.420;6.788;2022-12-20T03:43:00;7.00;;;4.07;;
41927;SDS011;27616;51.420;6.788;2022-12-20T03:45:26;8.90;;;3.63;;
41927;SDS011;27616;51.420;6.788;2022-12-20T03:47:52;7.93;;;3.30;;
41927;SDS011;27616;51.420;6.788;2022-12-20T03:50:18;8.20;;;3.60;;
41927;SDS011;27616;51.420;6.788;2022-12-20T03:52:44;6.53;;;3.13;;
41927;SDS011;27616;51.420;6.788;2022-12-20T03:55:10;7.47;;;4.07;;
41927;SDS011;27616;51.420;6.788;2022-12-20T03:57:39;4.65;;;3.38;;
41927;SDS011;27616;51.420;6.788;2022-12-20T04:00:19;7.03;;;3.47;;
41927;SDS011;27616;51.420;6.788;2022-12-20T04:02:48;6.70;;;3.00;;
41927;SDS011;27616;51.420;6.788;2022-12-20T04:05:14;7.70;;;3.80;;
41927;SDS011;27616;51.420;6.788;2022-12-20T04:07:41;7.17;;;4.10;;
41927;SDS011;27616;51.420;6.788;2022-12-20T04:10:07;8.20;;;3.87;;
41927;SDS011;27616;51.420;6.788;2022-12-20T04:12:33;9.50;;;4.93;;
41927;SDS011;27616;51.420;6.788;2022-12-20T04:14:59;8.70;;;4.47;;
41927;SDS011;27616;51.420;6.788;2022-12-20T04:17:26;9.50;;;4.67;;
41927;SDS011;27616;51.420;6.788;2022-12-20T04:19:52;12.67;;;5.40;;
41927;SDS011;27616;51.420;6.788;2022-12-20T04:22:18;9.10;;;5.10;;
41927;SDS011;27616;51.420;6.788;2022-12-20T04:24:50;10.43;;;5.67;;
41927;SDS011;27616;51.420;6.788;2022-12-20T04:27:37;10.90;;;5.07;;
41927;SDS011;27616;51.420;6.788;2022-12-20T04:30:05;10.00;;;5.90;;
41927;SDS011;27616;51.420;6.788;2022-12-20T04:32:32;12.13;;;6.10;;
41927;SDS011;27616;51.420;6.788;2022-12-20T04:34:59;7.37;;;5.50;;
41927;SDS011;27616;51.420;6.788;2022-12-20T04:37:25;9.47;;;5.20;;
41927;SDS011;27616;51.420;6.788;2022-12-20T04:39:53;8.07;;;5.07;;
41927;SDS011;27616;51.420;6.788;2022-12-20T04:42:26;9.47;;;4.80;;
41927;SDS011;27616;51.420;6.788;2022-12-20T04:44:53;9.10;;;5.73;;
41927;SDS011;27616;51.420;6.788;2022-12-20T04:47:23;11.53;;;4.67;;
41927;SDS011;27616;51.420;6.788;2022-12-20T04:49:50;8.53;;;4.70;;
41927;SDS011;27616;51.420;6.788;2022-12-20T04:52:15;8.37;;;4.83;;
41927;SDS011;27616;51.420;6.788;2022-12-20T04:55:00;9.33;;;4.60;;
41927;SDS011;27616;51.420;6.788;2022-12-20T04:57:30;7.97;;;4.50;;
41927;SDS011;27616;51.420;6.788;2022-12-20T04:59:56;7.50;;;4.03;;
41927;SDS011;27616;51.420;6.788;2022-12-20T05:02:22;7.47;;;4.40;;
41927;SDS011;27616;51.420;6.788;2022-12-20T05:04:52;8.57;;;4.13;;
41927;SDS011;27616;51.420;6.788;2022-12-20T05:07:18;11.53;;;4.83;;
41927;SDS011;27616;51.420;6.788;2022-12-20T05:09:49;7.47;;;4.53;;
41927;SDS011;27616;51.420;6.788;2022-12-20T05:12:15;9.30;;;4.13;;
41927;SDS011;27616;51.420;6.788;2022-12-20T05:14:41;10.40;;;4.10;;
41927;SDS011;27616;51.420;6.788;2022-12-20T05:17:08;6.60;;;4.03;;
41927;SDS011;27616;51.420;6.788;2022-12-20T05:19:34;9.47;;;4.10;;
41927;SDS011;27616;51.420;6.788;2022-12-20T05:22:00;10.57;;;4.30;;
41927;SDS011;27616;51.420;6.788;2022-12-20T05:27:44;7.03;;;3.90;;
41927;SDS011;27616;51.420;6.788;2022-12-20T05:30:10;6.70;;;4.10;;
41927;SDS011;27616;51.420;6.788;2022-12-20T05:32:36;10.77;;;4.57;;
41927;SDS011;27616;51.420;6.788;2022-12-20T05:35:02;7.10;;;4.23;;
41927;SDS011;27616;51.420;6.788;2022-12-20T05:37:29;10.97;;;4.43;;
41927;SDS011;27616;51.420;6.788;2022-12-20T05:40:02;6.27;;;3.50;;
41927;SDS011;27616;51.420;6.788;2022-12-20T05:42:29;5.37;;;3.73;;
41927;SDS011;27616;51.420;6.788;2022-12-20T05:44:55;7.87;;;3.67;;
41927;SDS011;27616;51.420;6.788;2022-12-20T05:47:20;6.97;;;4.00;;
41927;SDS011;27616;51.420;6.788;2022-12-20T05:49:51;6.90;;;3.83;;
41927;SDS011;27616;51.420;6.788;2022-12-20T05:52:18;7.27;;;3.77;;
41927;SDS011;27616;51.420;6.788;2022-12-20T05:54:44;6.63;;;3.57;;
41927;SDS011;27616;51.420;6.788;2022-12-20T05:57:14;5.53;;;3.25;;
41927;SDS011;27616;51.420;6.788;2022-12-20T05:59:40;6.67;;;3.40;;
41927;SDS011;27616;51.420;6.788;2022-12-20T06:02:14;6.80;;;3.83;;
41927;SDS011;27616;51.420;6.788;2022-12-20T06:04:40;9.27;;;3.63;;
41927;SDS011;27616;51.420;6.788;2022-12-20T06:07:14;8.20;;;3.30;;
41927;SDS011;27616;51.420;6.788;2022-12-20T06:09:42;5.90;;;3.50;;
41927;SDS011;27616;51.420;6.788;2022-12-20T06:12:12;10.13;;;3.63;;
41927;SDS011;27616;51.420;6.788;2022-12-20T06:14:38;12.60;;;3.60;;
41927;SDS011;27616;51.420;6.788;2022-12-20T06:17:04;10.20;;;3.73;;
41927;SDS011;27616;51.420;6.788;2022-12-20T06:19:30;10.40;;;4.47;;
41927;SDS011;27616;51.420;6.788;2022-12-20T06:21:57;9.03;;;4.13;;
41927;SDS011;27616;51.420;6.788;2022-12-20T06:24:30;6.33;;;3.47;;
41927;SDS011;27616;51.420;6.788;2022-12-20T06:26:57;5.23;;;3.10;;
41927;SDS011;27616;51.420;6.788;2022-12-20T06:29:24;7.20;;;3.23;;
41927;SDS011;27616;51.420;6.788;2022-12-20T06:31:58;7.23;;;3.60;;
41927;SDS011;27616;51.420;6.788;2022-12-20T06:34:25;8.93;;;3.63;;
41927;SDS011;27616;51.420;6.788;2022-12-20T06:36:52;12.70;;;5.90;;
41927;SDS011;27616;51.420;6.788;2022-12-20T06:39:22;6.27;;;3.30;;
41927;SDS011;27616;51.420;6.788;2022-12-20T06:42:06;13.30;;;6.23;;
41927;SDS011;27616;51.420;6.788;2022-12-20T06:44:33;11.30;;;4.93;;
41927;SDS011;27616;51.420;6.788;2022-12-20T06:47:00;5.87;;;3.07;;
41927;SDS011;27616;51.420;6.788;2022-12-20T06:49:26;7.00;;;2.70;;
41927;SDS011;27616;51.420;6.788;2022-12-20T06:51:52;6.50;;;2.87;;
41927;SDS011;27616;51.420;6.788;2022-12-20T06:54:23;5.37;;;2.63;;
41927;SDS011;27616;51.420;6.788;2022-12-20T06:56:49;5.70;;;2.90;;
41927;SDS011;27616;51.420;6.788;2022-12-20T06:59:15;6.83;;;2.80;;
41927;SDS011;27616;51.420;6.788;2022-12-20T07:01:41;5.97;;;2.97;;
41927;SDS011;27616;51.420;6.788;2022-12-20T07:04:06;5.20;;;2.83;;
41927;SDS011;27616;51.420;6.788;2022-12-20T07:06:32;8.07;;;3.43;;
41927;SDS011;27616;51.420;6.788;2022-12-20T07:08:58;8.17;;;2.80;;
41927;SDS011;27616;51.420;6.788;2022-12-20T07:11:24;5.20;;;2.90;;
41927;SDS011;27616;51.420;6.788;2022-12-20T07:13:53;8.80;;;3.13;;
41927;SDS011;27616;51.420;6.788;2022-12-20T07:16:22;7.47;;;3.40;;
41927;SDS011;27616;51.420;6.788;2022-12-20T07:18:51;5.13;;;2.80;;
41927;SDS011;27616;51.420;6.788;2022-12-20T07:21:18;8.37;;;3.10;;
41927;SDS011;27616;51.420;6.788;2022-12-20T07:23:45;7.17;;;3.27;;
41927;SDS011;27616;51.420;6.788;2022-12-20T07:26:12;10.40;;;2.80;;
41927;SDS011;27616;51.420;6.788;2022-12-20T07:28:38;5.13;;;2.57;;
41927;SDS011;27616;51.420;6.788;2022-12-20T07:31:03;5.80;;;2.60;;
41927;SDS011;27616;51.420;6.788;2022-12-20T07:33:30;6.20;;;2.40;;
41927;SDS011;27616;51.420;6.788;2022-12-20T07:36:03;6.77;;;2.80;;
41927;SDS011;27616;51.420;6.788;2022-12-20T07:38:30;4.80;;;2.50;;
41927;SDS011;27616;51.420;6.788;2022-12-20T07:40:56;7.80;;;2.57;;
41927;SDS011;27616;51.420;6.788;2022-12-20T07:43:22;6.07;;;2.30;;
41927;SDS011;27616;51.420;6.788;2022-12-20T07:45:48;5.97;;;2.30;;
41927;SDS011;27616;51.420;6.788;2022-12-20T07:48:18;5.57;;;2.77;;
41927;SDS011;27616;51.420;6.788;2022-12-20T07:50:44;5.77;;;2.60;;
41927;SDS011;27616;51.420;6.788;2022-12-20T07:53:10;7.23;;;2.40;;
41927;SDS011;27616;51.420;6.788;2022-12-20T07:55:36;7.20;;;2.60;;
41927;SDS011;27616;51.420;6.788;2022-12-20T07:58:04;5.73;;;2.60;;
41927;SDS011;27616;51.420;6.788;2022-12-20T08:00:32;6.13;;;2.50;;
41927;SDS011;27616;51.420;6.788;2022-12-20T08:05:33;4.53;;;2.30;;
41927;SDS011;27616;51.420;6.788;2022-12-20T08:08:01;4.20;;;2.20;;
41927;SDS011;27616;51.420;6.788;2022-12-20T08:10:28;4.27;;;2.07;;
41927;SDS011;27616;51.420;6.788;2022-12-20T08:12:54;6.27;;;2.57;;
41927;SDS011;27616;51.420;6.788;2022-12-20T08:15:21;7.67;;;2.50;;
41927;SDS011;27616;51.420;6.788;2022-12-20T08:17:48;8.43;;;2.60;;
41927;SDS011;27616;51.420;6.788;2022-12-20T08:20:14;4.37;;;2.03;;
41927;SDS011;27616;51.420;6.788;2022-12-20T08:22:40;4.63;;;2.37;;
41927;SDS011;27616;51.420;6.788;2022-12-20T08:25:06;5.10;;;1.93;;
41927;SDS011;27616;51.420;6.788;2022-12-20T08:27:32;6.37;;;2.13;;
41927;SDS011;27616;51.420;6.788;2022-12-20T08:29:58;7.10;;;2.20;;
41927;SDS011;27616;51.420;6.788;2022-12-20T08:32:24;6.67;;;2.10;;
41927;SDS011;27616;51.420;6.788;2022-12-20T08:34:50;4.93;;;2.30;;
41927;SDS011;27616;51.420;6.788;2022-12-20T08:37:17;5.97;;;2.33;;
41927;SDS011;27616;51.420;6.788;2022-12-20T08:39:43;4.30;;;1.80;;
41927;SDS011;27616;51.420;6.788;2022-12-20T08:42:09;5.13;;;2.07;;
41927;SDS011;27616;51.420;6.788;2022-12-20T08:44:35;7.47;;;2.33;;
41927;SDS011;27616;51.420;6.788;2022-12-20T08:47:01;4.40;;;2.20;;
41927;SDS011;27616;51.420;6.788;2022-12-20T08:49:27;5.50;;;2.23;;
41927;SDS011;27616;51.420;6.788;2022-12-20T08:51:53;5.23;;;2.23;;
41927;SDS011;27616;51.420;6.788;2022-12-20T08:54:18;6.27;;;2.03;;
41927;SDS011;27616;51.420;6.788;2022-12-20T08:56:44;8.20;;;2.60;;
41927;SDS011;27616;51.420;6.788;2022-12-20T08:59:10;7.80;;;2.57;;
41927;SDS011;27616;51.420;6.788;2022-12-20T09:01:36;6.00;;;2.27;;
41927;SDS011;27616;51.420;6.788;2022-12-20T09:04:02;5.33;;;1.93;;
41927;SDS011;27616;51.420;6.788;2022-12-20T09:06:28;6.50;;;2.23;;
41927;SDS011;27616;51.420;6.788;2022-12-20T09:08:54;5.43;;;2.07;;
41927;SDS011;27616;51.420;6.788;2022-12-20T09:11:23;4.77;;;1.50;;
41927;SDS011;27616;51.420;6.788;2022-12-20T09:13:51;7.23;;;2.30;;
41927;SDS011;27616;51.420;6.788;2022-12-20T09:16:19;5.93;;;2.33;;
41927;SDS011;27616;51.420;6.788;2022-12-20T09:18:52;4.47;;;2.20;;
41927;SDS011;27616;51.420;6.788;2022-12-20T09:21:20;4.97;;;2.10;;
41927;SDS011;27616;51.420;6.788;2022-12-20T09:23:46;3.83;;;1.90;;
41927;SDS011;27616;51.420;6.788;2022-12-20T09:26:15;5.87;;;2.57;;
41927;SDS011;27616;51.420;6.788;2022-12-20T09:28:42;5.37;;;2.37;;
41927;SDS011;27616;51.420;6.788;2022-12-20T09:31:16;5.80;;;2.20;;
41927;SDS011;27616;51.420;6.788;2022-12-20T09:33:44;4.83;;;2.17;;
41927;SDS011;27616;51.420;6.788;2022-12-20T09:36:11;5.23;;;1.80;;
41927;SDS011;27616;51.420;6.788;2022-12-20T09:38:38;13.23;;;7.27;;
41927;SDS011;27616;51.420;6.788;2022-12-20T09:41:04;7.33;;;2.83;;
41927;SDS011;27616;51.420;6.788;2022-12-20T09:43:32;9.10;;;5.18;;
41927;SDS011;27616;51.420;6.788;2022-12-20T09:45:59;7.93;;;4.17;;
41927;SDS011;27616;51.420;6.788;2022-12-20T09:48:33;5.83;;;2.33;;
41927;SDS011;27616;51.420;6.788;2022-12-20T09:51:14;5.20;;;2.00;;
41927;SDS011;27616;51.420;6.788;2022-12-20T09:59:28;5.53;;;2.23;;
41927;SDS011;27616;51.420;6.788;2022-12-20T10:01:57;10.30;;;2.17;;
41927;SDS011;27616;51.420;6.788;2022-12-20T10:04:24;4.97;;;2.30;;
41927;SDS011;27616;51.420;6.788;2022-12-20T10:12:47;7.33;;;2.53;;
41927;SDS011;27616;51.420;6.788;2022-12-20T10:23:22;6.63;;;2.30;;
41927;SDS011;27616;51.420;6.788;2022-12-20T10:25:50;7.97;;;2.10;;
41927;SDS011;27616;51.420;6.788;2022-12-20T10:28:19;6.07;;;2.20;;
41927;SDS011;27616;51.420;6.788;2022-12-20T10:30:49;8.83;;;2.47;;
41927;SDS011;27616;51.420;6.788;2022-12-20T10:33:17;6.20;;;2.30;;
41927;SDS011;27616;51.420;6.788;2022-12-20T10:35:45;4.43;;;1.90;;
41927;SDS011;27616;51.420;6.788;2022-12-20T10:38:12;3.03;;;1.63;;
41927;SDS011;27616;51.420;6.788;2022-12-20T10:40:46;5.03;;;2.23;;
41927;SDS011;27616;51.420;6.788;2022-12-20T10:43:24;5.73;;;2.23;;
41927;SDS011;27616;51.420;6.788;2022-12-20T10:45:58;5.90;;;2.77;;
41927;SDS011;27616;51.420;6.788;2022-12-20T10:48:34;6.00;;;2.30;;
41927;SDS011;27616;51.420;6.788;2022-12-20T10:53:37;7.50;;;2.53;;
41927;SDS011;27616;51.420;6.788;2022-12-20T10:59:01;3.87;;;1.83;;
41927;SDS011;27616;51.420;6.788;2022-12-20T11:01:47;4.87;;;2.43;;
41927;SDS011;27616;51.420;6.788;2022-12-20T11:04:46;3.73;;;2.00;;
41927;SDS011;27616;51.420;6.788;2022-12-20T11:07:22;6.17;;;2.00;;
41927;SDS011;27616;51.420;6.788;2022-12-20T11:10:18;4.80;;;2.20;;
41927;SDS011;27616;51.420;6.788;2022-12-20T11:12:53;5.67;;;2.40;;
41927;SDS011;27616;51.420;6.788;2022-12-20T11:15:21;7.50;;;2.63;;
41927;SDS011;27616;51.420;6.788;2022-12-20T11:17:50;7.28;;;2.50;;
41927;SDS011;27616;51.420;6.788;2022-12-20T11:20:24;8.17;;;2.23;;
41927;SDS011;27616;51.420;6.788;2022-12-20T11:28:27;8.47;;;2.27;;
41927;SDS011;27616;51.420;6.788;2022-12-20T11:37:05;5.80;;;2.00;;
41927;SDS011;27616;51.420;6.788;2022-12-20T11:42:36;5.90;;;2.37;;
41927;SDS011;27616;51.420;6.788;2022-12-20T11:53:12;4.95;;;2.20;;
41927;SDS011;27616;51.420;6.788;2022-12-20T11:55:41;5.30;;;2.30;;
41927;SDS011;27616;51.420;6.788;2022-12-20T11:58:22;12.07;;;2.70;;
41927;SDS011;27616;51.420;6.788;2022-12-20T12:00:54;4.23;;;2.13;;
41927;SDS011;27616;51.420;6.788;2022-12-20T12:03:32;7.50;;;2.43;;
41927;SDS011;27616;51.420;6.788;2022-12-20T12:06:02;9.73;;;2.47;;
41927;SDS011;27616;51.420;6.788;2022-12-20T12:08:39;7.07;;;2.87;;
41927;SDS011;27616;51.420;6.788;2022-12-20T12:11:17;5.07;;;2.30;;
41927;SDS011;27616;51.420;6.788;2022-12-20T12:13:47;5.43;;;2.50;;
41927;SDS011;27616;51.420;6.788;2022-12-20T12:16:19;6.20;;;2.20;;
41927;SDS011;27616;51.420;6.788;2022-12-20T12:18:47;6.97;;;2.10;;
41927;SDS011;27616;51.420;6.788;2022-12-20T12:21:32;4.57;;;2.10;;
41927;SDS011;27616;51.420;6.788;2022-12-20T12:24:28;5.67;;;1.83;;
41927;SDS011;27616;51.420;6.788;2022-12-20T12:26:59;5.87;;;2.03;;
41927;SDS011;27616;51.420;6.788;2022-12-20T12:29:25;5.97;;;2.27;;
41927;SDS011;27616;51.420;6.788;2022-12-20T12:31:56;6.90;;;2.73;;
41927;SDS011;27616;51.420;6.788;2022-12-20T12:34:31;6.30;;;2.60;;
41927;SDS011;27616;51.420;6.788;2022-12-20T12:45:47;6.57;;;2.70;;
41927;SDS011;27616;51.420;6.788;2022-12-20T12:51:06;6.13;;;2.30;;
41927;SDS011;27616;51.420;6.788;2022-12-20T13:04:22;7.10;;;2.80;;
41927;SDS011;27616;51.420;6.788;2022-12-20T13:06:57;8.87;;;2.83;;
41927;SDS011;27616;51.420;6.788;2022-12-20T13:11:51;5.80;;;2.77;;
41927;SDS011;27616;51.420;6.788;2022-12-20T13:16:50;7.43;;;2.80;;
41927;SDS011;27616;51.420;6.788;2022-12-20T13:24:52;7.22;;;2.75;;
41927;SDS011;27616;51.420;6.788;2022-12-20T13:27:30;6.93;;;2.90;;
41927;SDS011;27616;51.420;6.788;2022-12-20T13:37:55;5.93;;;2.63;;
41927;SDS011;27616;51.420;6.788;2022-12-20T13:45:50;10.90;;;5.67;;
41927;SDS011;27616;51.420;6.788;2022-12-20T13:48:26;8.03;;;3.90;;
41927;SDS011;27616;51.420;6.788;2022-12-20T13:50:55;6.00;;;2.80;;
41927;SDS011;27616;51.420;6.788;2022-12-20T13:53:26;7.43;;;3.10;;
41927;SDS011;27616;51.420;6.788;2022-12-20T13:55:52;8.40;;;3.70;;
41927;SDS011;27616;51.420;6.788;2022-12-20T13:58:19;6.90;;;3.23;;
41927;SDS011;27616;51.420;6.788;2022-12-20T14:00:49;9.50;;;3.70;;
41927;SDS011;27616;51.420;6.788;2022-12-20T14:03:19;9.53;;;3.77;;
41927;SDS011;27616;51.420;6.788;2022-12-20T14:05:45;7.20;;;3.60;;
41927;SDS011;27616;51.420;6.788;2022-12-20T14:08:19;11.03;;;3.70;;
41927;SDS011;27616;51.420;6.788;2022-12-20T14:10:46;9.80;;;4.00;;
41927;SDS011;27616;51.420;6.788;2022-12-20T14:13:18;7.60;;;3.57;;
41927;SDS011;27616;51.420;6.788;2022-12-20T14:15:44;6.30;;;3.43;;
41927;SDS011;27616;51.420;6.788;2022-12-20T14:18:20;7.07;;;3.17;;
41927;SDS011;27616;51.420;6.788;2022-12-20T14:20:57;9.95;;;3.42;;
41927;SDS011;27616;51.420;6.788;2022-12-20T14:23:34;8.60;;;3.00;;
41927;SDS011;27616;51.420;6.788;2022-12-20T14:26:04;9.10;;;3.40;;
41927;SDS011;27616;51.420;6.788;2022-12-20T14:28:36;8.97;;;3.30;;
41927;SDS011;27616;51.420;6.788;2022-12-20T14:31:03;7.93;;;3.47;;
41927;SDS011;27616;51.420;6.788;2022-12-20T14:36:21;9.87;;;4.63;;
41927;SDS011;27616;51.420;6.788;2022-12-20T14:38:48;9.57;;;3.63;;
41927;SDS011;27616;51.420;6.788;2022-12-20T14:46:35;8.53;;;4.50;;
41927;SDS011;27616;51.420;6.788;2022-12-20T14:51:37;9.73;;;5.03;;
41927;SDS011;27616;51.420;6.788;2022-12-20T14:54:03;10.80;;;4.97;;
41927;SDS011;27616;51.420;6.788;2022-12-20T14:56:29;9.73;;;4.80;;
41927;SDS011;27616;51.420;6.788;2022-12-20T14:59:01;38.83;;;21.23;;
41927;SDS011;27616;51.420;6.788;2022-12-20T15:01:37;15.20;;;7.00;;
41927;SDS011;27616;51.420;6.788;2022-12-20T15:04:17;24.80;;;14.23;;
41927;SDS011;27616;51.420;6.788;2022-12-20T15:06:55;11.00;;;5.33;;
41927;SDS011;27616;51.420;6.788;2022-12-20T15:09:21;12.03;;;5.80;;
41927;SDS011;27616;51.420;6.788;2022-12-20T15:11:47;11.67;;;6.93;;
41927;SDS011;27616;51.420;6.788;2022-12-20T15:14:33;17.47;;;5.90;;
41927;SDS011;27616;51.420;6.788;2022-12-20T15:17:11;14.47;;;6.47;;
41927;SDS011;27616;51.420;6.788;2022-12-20T15:19:38;20.27;;;7.07;;
41927;SDS011;27616;51.420;6.788;2022-12-20T15:22:04;18.00;;;7.77;;
41927;SDS011;27616;51.420;6.788;2022-12-20T15:26:59;12.27;;;5.57;;
41927;SDS011;27616;51.420;6.788;2022-12-20T15:29:26;12.73;;;5.90;;
41927;SDS011;27616;51.420;6.788;2022-12-20T15:31:56;13.37;;;7.07;;
41927;SDS011;27616;51.420;6.788;2022-12-20T15:34:34;12.20;;;5.57;;
41927;SDS011;27616;51.420;6.788;2022-12-20T15:37:01;13.67;;;6.40;;
41927;SDS011;27616;51.420;6.788;2022-12-20T15:39:29;10.30;;;5.97;;
41927;SDS011;27616;51.420;6.788;2022-12-20T15:41:56;12.73;;;6.57;;
41927;SDS011;27616;51.420;6.788;2022-12-20T15:44:25;15.40;;;6.60;;
41927;SDS011;27616;51.420;6.788;2022-12-20T15:46:53;16.60;;;7.10;;
41927;SDS011;27616;51.420;6.788;2022-12-20T15:49:20;14.80;;;6.20;;
41927;SDS011;27616;51.420;6.788;2022-12-20T15:51:48;16.20;;;6.57;;
41927;SDS011;27616;51.420;6.788;2022-12-20T15:54:19;12.50;;;6.37;;
41927;SDS011;27616;51.420;6.788;2022-12-20T15:56:49;13.60;;;6.13;;
41927;SDS011;27616;51.420;6.788;2022-12-20T15:59:15;17.30;;;6.40;;
41927;SDS011;27616;51.420;6.788;2022-12-20T16:01:41;13.00;;;6.00;;
41927;SDS011;27616;51.420;6.788;2022-12-20T16:04:07;15.53;;;6.53;;
41927;SDS011;27616;51.420;6.788;2022-12-20T16:06:41;10.70;;;6.10;;
41927;SDS011;27616;51.420;6.788;2022-12-20T16:09:08;11.70;;;6.53;;
41927;SDS011;27616;51.420;6.788;2022-12-20T16:11:34;11.47;;;5.87;;
41927;SDS011;27616;51.420;6.788;2022-12-20T16:14:00;11.63;;;5.93;;
41927;SDS011;27616;51.420;6.788;2022-12-20T16:16:27;12.13;;;5.70;;
41927;SDS011;27616;51.420;6.788;2022-12-20T16:18:55;12.40;;;4.82;;
41927;SDS011;27616;51.420;6.788;2022-12-20T16:21:25;9.80;;;5.30;;
41927;SDS011;27616;51.420;6.788;2022-12-20T16:23:54;10.10;;;4.80;;
41927;SDS011;27616;51.420;6.788;2022-12-20T16:26:21;12.27;;;5.60;;
41927;SDS011;27616;51.420;6.788;2022-12-20T16:28:47;10.63;;;5.77;;
41927;SDS011;27616;51.420;6.788;2022-12-20T16:33:49;14.13;;;6.13;;
41927;SDS011;27616;51.420;6.788;2022-12-20T16:36:16;11.67;;;6.23;;
41927;SDS011;27616;51.420;6.788;2022-12-20T16:38:42;14.40;;;6.20;;
41927;SDS011;27616;51.420;6.788;2022-12-20T16:41:23;13.93;;;6.70;;
41927;SDS011;27616;51.420;6.788;2022-12-20T16:43:52;10.33;;;5.77;;
41927;SDS011;27616;51.420;6.788;2022-12-20T16:46:19;10.33;;;4.90;;
41927;SDS011;27616;51.420;6.788;2022-12-20T16:48:46;13.07;;;5.50;;
41927;SDS011;27616;51.420;6.788;2022-12-20T16:54:01;8.90;;;4.77;;
41927;SDS011;27616;51.420;6.788;2022-12-20T16:56:29;9.38;;;4.25;;
41927;SDS011;27616;51.420;6.788;2022-12-20T16:58:55;9.33;;;4.50;;
41927;SDS011;27616;51.420;6.788;2022-12-20T17:01:23;12.73;;;4.63;;
41927;SDS011;27616;51.420;6.788;2022-12-20T17:03:54;9.23;;;4.20;;
41927;SDS011;27616;51.420;6.788;2022-12-20T17:06:20;8.67;;;4.37;;
41927;SDS011;27616;51.420;6.788;2022-12-20T17:08:46;8.30;;;3.87;;
41927;SDS011;27616;51.420;6.788;2022-12-20T17:11:21;6.53;;;3.67;;
41927;SDS011;27616;51.420;6.788;2022-12-20T17:13:53;10.90;;;4.07;;